Kezdőlap
METAR-TAF:

METAR-TAF

Repülőterek :

Ivalói repülőtér

Ivalo, Finnország

földrajzi szélesség: 68-37N, földrajzi hosszúság: 027-25E, magasság: 147 m

Jelenlegi meteorológiai megfigyelések

A jelentés 20 perccel ezelõtt készült, 04:20 UTC
Nyugat-délnyugati szél 4 kt
Hőmérséklet -37°C
Páratartalom 73%
Légköri nyomás 1013 hPa
Látótávolság 10 km, vagy több
Borult 300 lábon

METAR: EFIV 280420Z AUTO 24004KT 9999 OVC003 M37/M40 Q1013

Idő: 06:40 (04:40 UTC)

Előrejelzés

A jelentés 2 órával és 11 perccel ezelõtt készült, 02:29 UTC
Az előrejelzés 28-én 03 óra UTC és 28-én 12 óra UTC között érvényes
Nyugat-délnyugati szél 5 kt
Látótávolság 10 km, vagy több
Szakadozott felhőzet 200 lábon
28-én 03 óra UTC és 28-én 12 óra UTC között ideiglenes
Látótávolság: 4000 m
Szórványos felhőzet 200 lábon
Párásság

TAF: EFIV 280229Z 2803/2812 24005KT 9999 BKN002 TEMPO 2803/2812 4000 BR SCT002

Meteorológiai megfigyelések és előrejelzések több, mint 4000 repülőtéren (METAR és TAF jelentéseket).

A térképen piros és sárga pontok jelzik az elérhető meteorológiai állomásokat.

Mozgassa az egeret a pont fölött, hogy megjelenjen az állomás neve.

Azután kattintson az időjárási megfigyelések és előrejelzések megtekintéséhez.

A térkép megváltoztatása: kattintson a fekete keresztel jelölt zöld gombra ráközelítéshez, a vonallal jelölt zöld gombra távolításhoz, vagy a zöld nyilakra a szomszédos térképek eléréséhez.


METAR-TAF: